Decoded Metar for CWRX (ROWLEY ISLAND in NU, CANADA) (IATA:WRX) | Meteo·Mobile Aviation Weather
aviador You're here:

CWRX Decoded Metar

ROWLEY ISLAND in NU, CANADA
Report Time2019-02-20 20:00:00
UTC Time2019-02-20 20:13:57
Flight Rules lifr LIFR
WindVRB at 02 kt
Visibility0 m
Phenomena:N/A
Clouds:N/A
Expected CloudBase > 1,200 ft AGL from Temp-Dew spread
CeilingNone
Temp-26°C (ISA -41)
Dew Point-29°C (76% RH)
AAT-30.5°C
QNH1006 hPa
Density Alt-4,905 ft
Elevation135 ft
Report Wrong Elevation
Raw Report
CWRX 202000Z AUTO VRB02KT ////SM //// ////// M26/M29 A2970=

Extra information for CWRX:More info

Metar Taf Metar & Taf Last 4 Metars F.Rules Stats Wind Profile Meteogram Temp Stats Airport Information Weather charts Add Link Nearby VenuesMetar ALERT Operation Metar Decoded Social comments